createdAt,value
2022-12-25T00:02:14.837Z,9.40
2022-12-25T00:07:16.547Z,9.40
2022-12-25T00:12:19.291Z,9.20
2022-12-25T00:17:21.006Z,9.20
2022-12-25T00:22:22.859Z,9.10
2022-12-25T00:27:24.526Z,9.10
2022-12-25T00:32:26.244Z,9.10
2022-12-25T00:37:27.918Z,9.00
2022-12-25T00:42:29.677Z,8.90
2022-12-25T00:47:31.586Z,9.30
2022-12-25T00:52:33.306Z,9.00
2022-12-25T00:57:35.191Z,10.20
2022-12-25T01:07:39.246Z,9.10
2022-12-25T01:12:42.721Z,9.10
2022-12-25T01:17:44.870Z,9.20
2022-12-25T01:22:47.328Z,8.80
2022-12-25T01:27:49.040Z,8.90
2022-12-25T01:32:50.723Z,10.00
2022-12-25T01:42:54.869Z,9.00
2022-12-25T01:47:56.716Z,9.10
2022-12-25T01:52:58.605Z,9.10
2022-12-25T01:58:00.565Z,9.10
2022-12-25T02:03:02.328Z,9.10
2022-12-25T02:08:11.085Z,9.10
2022-12-25T02:13:19.227Z,9.30
2022-12-25T02:18:43.764Z,9.10
2022-12-25T02:24:09.689Z,9.10
2022-12-25T02:29:23.147Z,9.10
2022-12-25T02:34:46.915Z,9.00
2022-12-25T02:40:00.725Z,9.10
2022-12-25T02:45:21.164Z,9.10
2022-12-25T02:50:43.714Z,9.20
2022-12-25T02:56:07.191Z,9.20
2022-12-25T03:01:33.986Z,9.20
2022-12-25T03:06:42.888Z,10.40
2022-12-25T03:11:50.554Z,9.20
2022-12-25T03:16:56.428Z,9.20
2022-12-25T03:22:17.053Z,9.50
2022-12-25T03:27:18.941Z,9.20
2022-12-25T03:32:37.419Z,9.10
2022-12-25T03:38:47.731Z,10.20
2022-12-25T03:44:28.213Z,9.20
2022-12-25T03:49:57.817Z,9.60
2022-12-25T03:55:23.015Z,9.20
2022-12-25T04:00:43.299Z,9.20
2022-12-25T04:06:11.166Z,8.90
2022-12-25T04:11:31.273Z,9.00
2022-12-25T04:16:51.514Z,9.00
2022-12-25T04:22:11.862Z,9.20
2022-12-25T04:27:32.365Z,9.10
2022-12-25T04:32:52.479Z,9.20
2022-12-25T04:37:54.250Z,9.10
2022-12-25T04:42:55.967Z,9.00
2022-12-25T04:48:00.347Z,9.20
2022-12-25T04:53:02.053Z,9.30
2022-12-25T04:58:04.215Z,9.10
2022-12-25T05:03:06.000Z,8.90
2022-12-25T05:08:07.844Z,8.70
2022-12-25T05:13:09.598Z,8.80
2022-12-25T05:18:11.462Z,8.90
2022-12-25T05:23:13.208Z,9.30
2022-12-25T05:28:15.033Z,11.20
2022-12-25T05:33:16.762Z,9.10
2022-12-25T05:38:18.446Z,9.00
2022-12-25T05:43:20.266Z,9.10
2022-12-25T05:48:22.243Z,9.20
2022-12-25T05:53:23.954Z,9.10
2022-12-25T05:58:25.633Z,9.20
2022-12-25T06:03:28.008Z,9.00
2022-12-25T06:08:29.797Z,8.60
2022-12-25T06:13:32.835Z,8.60
2022-12-25T06:18:38.909Z,9.80
2022-12-25T06:23:41.123Z,8.80
2022-12-25T06:28:43.388Z,8.80
2022-12-25T06:33:45.402Z,8.80
2022-12-25T06:38:47.576Z,9.40
2022-12-25T06:43:53.750Z,8.80
2022-12-25T06:48:56.869Z,8.90
2022-12-25T06:54:03.060Z,8.70
2022-12-25T06:59:07.705Z,8.60
2022-12-25T07:04:40.962Z,8.80
2022-12-25T07:09:42.760Z,8.90
2022-12-25T07:14:48.599Z,8.90
2022-12-25T07:19:50.689Z,8.90
2022-12-25T07:24:52.395Z,8.90
2022-12-25T07:29:54.025Z,8.90
2022-12-25T07:34:55.742Z,8.90
2022-12-25T07:39:57.552Z,9.00
2022-12-25T07:44:59.264Z,9.00
2022-12-25T07:50:00.975Z,9.10
2022-12-25T07:55:02.706Z,9.00
2022-12-25T08:00:05.825Z,10.30
2022-12-25T08:05:08.143Z,9.20
2022-12-25T08:10:10.289Z,9.30
2022-12-25T08:15:12.003Z,9.20
2022-12-25T08:20:13.788Z,9.20
2022-12-25T08:25:15.982Z,9.30
2022-12-25T08:30:17.984Z,9.30
2022-12-25T08:40:25.266Z,9.40
2022-12-25T08:50:36.895Z,9.80
2022-12-25T08:55:38.964Z,9.80
2022-12-25T09:05:43.116Z,10.00
2022-12-25T09:10:44.940Z,10.40
2022-12-25T09:15:46.942Z,10.40
2022-12-25T09:21:00.848Z,11.80
2022-12-25T09:26:05.787Z,11.70
2022-12-25T09:31:07.791Z,12.30
2022-12-25T09:36:10.446Z,12.30
2022-12-25T09:41:33.439Z,12.40
2022-12-25T09:46:45.235Z,12.70
2022-12-25T09:51:53.308Z,13.10
2022-12-25T09:56:55.211Z,12.90
2022-12-25T10:02:05.964Z,12.50
2022-12-25T10:07:27.176Z,12.40
2022-12-25T10:12:50.097Z,12.00
2022-12-25T10:18:07.218Z,12.20
2022-12-25T10:23:19.144Z,12.50
2022-12-25T10:28:33.746Z,12.50
2022-12-25T10:33:35.592Z,12.90
2022-12-25T10:38:37.466Z,13.10
2022-12-25T10:43:45.532Z,13.70
2022-12-25T10:48:57.306Z,13.60
2022-12-25T10:53:59.801Z,14.10
2022-12-25T10:59:10.766Z,14.40
2022-12-25T11:04:26.103Z,14.40
2022-12-25T11:09:28.140Z,14.90
2022-12-25T11:14:30.691Z,17.90
2022-12-25T11:19:33.358Z,19.40
2022-12-25T11:24:35.280Z,20.70
2022-12-25T11:29:37.307Z,23.10
2022-12-25T11:34:45.780Z,21.90
2022-12-25T11:39:47.964Z,22.70
2022-12-25T11:45:14.044Z,24.40
2022-12-25T11:50:34.454Z,20.90
2022-12-25T11:55:42.632Z,21.40
2022-12-25T12:00:47.653Z,22.10
2022-12-25T12:05:55.820Z,19.80
2022-12-25T12:11:16.590Z,20.00
2022-12-25T12:16:18.567Z,20.70
2022-12-25T12:21:29.704Z,27.10
2022-12-25T12:26:40.877Z,29.90
2022-12-25T12:31:50.747Z,30.90
2022-12-25T12:36:59.182Z,26.00
2022-12-25T12:42:01.364Z,24.40
2022-12-25T12:47:03.155Z,25.50
2022-12-25T12:52:23.735Z,21.70
2022-12-25T12:57:29.535Z,19.90
2022-12-25T13:02:56.954Z,19.10
2022-12-25T13:08:10.763Z,18.20
2022-12-25T13:13:26.760Z,18.20
2022-12-25T13:18:28.814Z,17.80
2022-12-25T13:23:37.040Z,17.30
2022-12-25T13:28:39.290Z,17.10
2022-12-25T13:33:47.444Z,16.90
2022-12-25T13:38:51.664Z,17.20
2022-12-25T13:43:58.390Z,18.00
2022-12-25T13:49:01.308Z,18.90
2022-12-25T13:54:07.058Z,25.50
2022-12-25T13:59:16.187Z,27.40
2022-12-25T14:04:21.922Z,26.10
2022-12-25T14:09:23.975Z,25.00
2022-12-25T14:14:26.352Z,20.70
2022-12-25T14:19:31.805Z,20.80
2022-12-25T14:24:34.892Z,18.30
2022-12-25T14:29:44.370Z,18.00
2022-12-25T14:34:49.479Z,16.80
2022-12-25T14:39:56.428Z,16.40
2022-12-25T14:45:06.815Z,15.70
2022-12-25T14:50:38.746Z,15.50
2022-12-25T14:55:40.548Z,14.90
2022-12-25T15:00:42.527Z,14.30
2022-12-25T15:05:44.342Z,14.10
2022-12-25T15:11:03.435Z,13.80
2022-12-25T15:16:25.640Z,13.50
2022-12-25T15:21:30.372Z,13.00
2022-12-25T15:26:32.489Z,13.00
2022-12-25T15:31:36.844Z,12.90
2022-12-25T15:36:39.930Z,12.70
2022-12-25T15:42:00.570Z,12.50
2022-12-25T15:47:02.503Z,12.40
2022-12-25T15:52:06.029Z,12.30
2022-12-25T15:57:18.143Z,12.20
2022-12-25T16:02:21.060Z,12.20
2022-12-25T16:07:25.024Z,12.10
2022-12-25T16:12:27.090Z,12.00
2022-12-25T16:17:28.896Z,11.80
2022-12-25T16:22:31.906Z,11.70
2022-12-25T16:27:33.685Z,11.70
2022-12-25T16:32:35.557Z,11.60
2022-12-25T16:37:37.950Z,11.60
2022-12-25T16:42:39.963Z,11.50
2022-12-25T16:47:41.875Z,11.60
2022-12-25T16:52:43.657Z,11.50
2022-12-25T16:57:48.410Z,11.50
2022-12-25T17:02:50.461Z,11.40
2022-12-25T17:07:52.652Z,11.30
2022-12-25T17:12:54.440Z,11.30
2022-12-25T17:17:57.023Z,11.20
2022-12-25T17:22:59.358Z,11.20
2022-12-25T17:28:01.151Z,12.30
2022-12-25T17:33:02.958Z,11.20
2022-12-25T17:38:04.994Z,11.20
2022-12-25T17:43:06.981Z,11.10
2022-12-25T17:48:08.881Z,10.90
2022-12-25T17:53:10.993Z,10.80
2022-12-25T17:58:12.780Z,10.70
2022-12-25T18:03:14.823Z,10.90
2022-12-25T18:08:16.742Z,10.80
2022-12-25T18:13:18.532Z,11.30
2022-12-25T18:23:22.545Z,10.60
2022-12-25T18:28:24.485Z,10.60
2022-12-25T18:33:26.971Z,10.60
2022-12-25T18:38:28.889Z,10.50
2022-12-25T18:43:52.186Z,10.60
2022-12-25T18:48:53.882Z,10.40
2022-12-25T18:53:57.321Z,10.40
2022-12-25T18:59:00.526Z,10.50
2022-12-25T19:04:05.589Z,10.60
2022-12-25T19:09:10.947Z,10.30
2022-12-25T19:14:13.025Z,10.40
2022-12-25T19:19:15.401Z,10.30
2022-12-25T19:24:17.172Z,10.30
2022-12-25T19:29:19.071Z,10.30
2022-12-25T19:34:21.290Z,9.80
2022-12-25T19:39:23.108Z,9.80
2022-12-25T19:44:25.052Z,9.80
2022-12-25T19:49:27.242Z,9.70
2022-12-25T19:54:29.649Z,9.60
2022-12-25T19:59:31.538Z,9.40
2022-12-25T20:04:33.340Z,9.50
2022-12-25T20:09:35.418Z,9.70
2022-12-25T20:14:37.294Z,9.60
2022-12-25T20:19:39.129Z,9.60
2022-12-25T20:24:41.050Z,9.50
2022-12-25T20:29:42.945Z,9.60
2022-12-25T20:34:44.964Z,9.40
2022-12-25T20:39:46.864Z,9.40
2022-12-25T20:44:48.975Z,9.40
2022-12-25T20:49:50.908Z,9.40
2022-12-25T20:54:52.696Z,9.30
2022-12-25T21:10:00.042Z,9.40
2022-12-25T21:15:01.981Z,9.40
2022-12-25T21:20:04.437Z,9.50
2022-12-25T21:25:06.577Z,9.40
2022-12-25T21:30:14.056Z,9.20
2022-12-25T21:35:17.378Z,9.20
2022-12-25T21:40:19.503Z,9.20
2022-12-25T21:45:21.409Z,9.20
2022-12-25T21:50:41.891Z,9.10
2022-12-25T21:55:54.541Z,9.20
2022-12-25T22:00:56.624Z,9.20
2022-12-25T22:06:21.289Z,9.40
2022-12-25T22:11:45.272Z,8.90
2022-12-25T22:17:05.591Z,9.30
2022-12-25T22:22:07.406Z,9.20
2022-12-25T22:27:09.207Z,8.90
2022-12-25T22:32:12.258Z,9.00
2022-12-25T22:37:17.245Z,9.20
2022-12-25T22:42:19.713Z,9.40
2022-12-25T22:52:25.070Z,9.30
2022-12-25T22:57:27.073Z,9.00
2022-12-25T23:02:29.163Z,8.70
2022-12-25T23:18:13.217Z,8.90
2022-12-25T23:23:35.083Z,8.90
2022-12-25T23:29:00.294Z,8.90
2022-12-25T23:34:03.055Z,9.00
2022-12-25T23:39:09.445Z,9.00
2022-12-25T23:44:13.221Z,9.10
2022-12-25T23:49:15.114Z,8.70
2022-12-25T23:54:20.118Z,8.60
2022-12-25T23:59:22.489Z,8.50
